sensor_id;sensor_type;location;lat;lon;timestamp;pressure;altitude;pressure_sealevel;temperature;humidity
6150;BME280;3106;42.670;23.318;2022-10-20T04:21:49;94958.75;;;11.39;99.88
6150;BME280;3106;42.670;23.318;2022-10-20T04:24:16;94963.31;;;11.38;99.94
6150;BME280;3106;42.670;23.318;2022-10-20T04:26:43;94941.56;;;11.28;99.84
6150;BME280;3106;42.670;23.318;2022-10-20T04:29:10;94962.00;;;11.44;100.00
6150;BME280;3106;42.670;23.318;2022-10-20T04:31:36;94964.75;;;11.48;100.00
6150;BME280;3106;42.670;23.318;2022-10-20T04:34:03;94943.88;;;11.29;100.00
6150;BME280;3106;42.670;23.318;2022-10-20T04:36:30;94950.94;;;11.34;99.70
6150;BME280;3106;42.670;23.318;2022-10-20T04:38:58;94959.84;;;11.38;100.00
6150;BME280;3106;42.670;23.318;2022-10-20T04:41:25;94976.50;;;11.43;100.00
6150;BME280;3106;42.670;23.318;2022-10-20T04:43:52;94966.44;;;11.40;99.82
6150;BME280;3106;42.670;23.318;2022-10-20T04:46:19;94958.97;;;11.34;99.91
6150;BME280;3106;42.670;23.318;2022-10-20T04:48:46;94968.22;;;11.36;99.75
6150;BME280;3106;42.670;23.318;2022-10-20T04:51:14;94985.97;;;11.41;99.63
6150;BME280;3106;42.670;23.318;2022-10-20T04:53:42;94977.81;;;11.37;100.00
6150;BME280;3106;42.670;23.318;2022-10-20T04:56:12;94992.22;;;11.45;99.73
6150;BME280;3106;42.670;23.318;2022-10-20T04:58:46;94960.16;;;11.24;100.00
6150;BME280;3106;42.670;23.318;2022-10-20T05:01:14;94989.53;;;11.45;99.72
6150;BME280;3106;42.670;23.318;2022-10-20T05:03:41;94962.75;;;11.21;99.76
6150;BME280;3106;42.670;23.318;2022-10-20T05:06:10;94988.31;;;11.42;99.24
6150;BME280;3106;42.670;23.318;2022-10-20T05:08:38;95008.84;;;11.50;99.78
6150;BME280;3106;42.670;23.318;2022-10-20T05:11:05;94980.72;;;11.32;99.46
6150;BME280;3106;42.670;23.318;2022-10-20T05:13:34;95000.91;;;11.42;99.75
6150;BME280;3106;42.670;23.318;2022-10-20T05:16:01;94970.13;;;11.36;99.66
6150;BME280;3106;42.670;23.318;2022-10-20T05:18:28;95010.41;;;11.51;99.15
6150;BME280;3106;42.670;23.318;2022-10-20T05:21:14;94973.69;;;11.28;99.42
6150;BME280;3106;42.670;23.318;2022-10-20T05:23:56;94997.13;;;11.43;98.79
6150;BME280;3106;42.670;23.318;2022-10-20T07:30:24;95149.88;;;14.51;86.74
6150;BME280;3106;42.670;23.318;2022-10-20T07:32:52;95137.53;;;14.65;85.79
6150;BME280;3106;42.670;23.318;2022-10-20T07:35:18;95145.31;;;14.86;84.59
6150;BME280;3106;42.670;23.318;2022-10-20T07:37:45;95135.41;;;14.90;83.95
6150;BME280;3106;42.670;23.318;2022-10-20T07:40:12;95147.66;;;15.21;82.37
6150;BME280;3106;42.670;23.318;2022-10-20T07:42:39;95156.78;;;15.17;82.19
6150;BME280;3106;42.670;23.318;2022-10-20T07:45:07;95167.91;;;14.66;84.37
6150;BME280;3106;42.670;23.318;2022-10-20T07:47:35;95147.03;;;14.44;85.11
6150;BME280;3106;42.670;23.318;2022-10-20T07:50:02;95133.88;;;14.11;85.32
6150;BME280;3106;42.670;23.318;2022-10-20T07:52:29;95106.47;;;13.90;86.20
6150;BME280;3106;42.670;23.318;2022-10-20T07:54:56;95142.59;;;14.20;86.18
6150;BME280;3106;42.670;23.318;2022-10-20T07:57:23;95144.94;;;14.22;85.88
6150;BME280;3106;42.670;23.318;2022-10-20T07:59:50;95142.75;;;14.12;85.78
6150;BME280;3106;42.670;23.318;2022-10-20T08:02:16;95142.59;;;14.20;86.34
6150;BME280;3106;42.670;23.318;2022-10-20T08:04:46;95130.38;;;14.23;84.69
6150;BME280;3106;42.670;23.318;2022-10-20T08:07:13;95144.84;;;14.49;83.58
6150;BME280;3106;42.670;23.318;2022-10-20T08:09:39;95141.13;;;14.54;83.53
6150;BME280;3106;42.670;23.318;2022-10-20T08:12:06;95137.19;;;14.67;83.00
6150;BME280;3106;42.670;23.318;2022-10-20T08:14:34;95138.88;;;14.90;81.24
6150;BME280;3106;42.670;23.318;2022-10-20T08:17:02;95137.25;;;14.86;81.50
6150;BME280;3106;42.670;23.318;2022-10-20T08:19:29;95114.75;;;14.44;81.36
6150;BME280;3106;42.670;23.318;2022-10-20T08:21:57;95126.25;;;14.60;81.32
6150;BME280;3106;42.670;23.318;2022-10-20T08:24:24;95119.47;;;14.66;81.04
6150;BME280;3106;42.670;23.318;2022-10-20T08:26:51;95132.44;;;14.60;80.46
6150;BME280;3106;42.670;23.318;2022-10-20T08:29:18;95101.34;;;14.63;79.55
6150;BME280;3106;42.670;23.318;2022-10-20T08:31:44;95145.19;;;14.98;78.66
6150;BME280;3106;42.670;23.318;2022-10-20T08:34:11;95134.34;;;14.94;77.73
6150;BME280;3106;42.670;23.318;2022-10-20T08:36:41;95132.31;;;15.07;76.83
6150;BME280;3106;42.670;23.318;2022-10-20T08:39:09;95136.94;;;15.25;75.96
6150;BME280;3106;42.670;23.318;2022-10-20T08:41:41;95121.97;;;15.08;76.01
6150;BME280;3106;42.670;23.318;2022-10-20T08:44:17;95123.69;;;15.16;76.42
6150;BME280;3106;42.670;23.318;2022-10-20T08:46:45;95127.38;;;15.27;75.62
6150;BME280;3106;42.670;23.318;2022-10-20T08:49:16;95120.69;;;15.37;75.31
6150;BME280;3106;42.670;23.318;2022-10-20T08:51:45;95126.06;;;15.56;74.44
6150;BME280;3106;42.670;23.318;2022-10-20T08:54:14;95133.50;;;15.43;73.93
6150;BME280;3106;42.670;23.318;2022-10-20T08:56:42;95127.16;;;15.17;74.27
6150;BME280;3106;42.670;23.318;2022-10-20T08:59:24;95115.53;;;15.13;73.68
6150;BME280;3106;42.670;23.318;2022-10-20T09:01:51;95118.91;;;15.44;73.60
6150;BME280;3106;42.670;23.318;2022-10-20T09:04:21;95104.44;;;15.52;70.83
6150;BME280;3106;42.670;23.318;2022-10-20T09:06:52;95113.09;;;15.61;70.17
6150;BME280;3106;42.670;23.318;2022-10-20T09:09:23;95136.00;;;15.71;70.60
6150;BME280;3106;42.670;23.318;2022-10-20T09:11:51;95133.00;;;15.76;68.78
6150;BME280;3106;42.670;23.318;2022-10-20T09:14:20;95130.59;;;15.71;69.13
6150;BME280;3106;42.670;23.318;2022-10-20T09:16:47;95117.03;;;15.86;68.32
6150;BME280;3106;42.670;23.318;2022-10-20T09:19:16;95136.31;;;15.88;66.34
6150;BME280;3106;42.670;23.318;2022-10-20T09:21:45;95127.66;;;15.98;65.70
6150;BME280;3106;42.670;23.318;2022-10-20T09:24:15;95130.97;;;15.92;64.29
6150;BME280;3106;42.670;23.318;2022-10-20T09:26:46;95117.47;;;16.11;62.84
6150;BME280;3106;42.670;23.318;2022-10-20T09:29:15;95139.34;;;16.28;62.04
6150;BME280;3106;42.670;23.318;2022-10-20T09:31:44;95135.56;;;16.33;61.14
6150;BME280;3106;42.670;23.318;2022-10-20T09:34:29;95145.78;;;16.65;60.16
6150;BME280;3106;42.670;23.318;2022-10-20T09:37:01;95126.75;;;16.58;59.25
6150;BME280;3106;42.670;23.318;2022-10-20T09:39:31;95137.28;;;16.63;59.12
6150;BME280;3106;42.670;23.318;2022-10-20T09:42:04;95130.72;;;16.64;58.22
6150;BME280;3106;42.670;23.318;2022-10-20T09:44:36;95118.53;;;16.51;58.16
6150;BME280;3106;42.670;23.318;2022-10-20T09:47:11;95119.88;;;16.38;59.02
6150;BME280;3106;42.670;23.318;2022-10-20T09:49:41;95113.97;;;16.33;59.32
6150;BME280;3106;42.670;23.318;2022-10-20T09:52:16;95122.22;;;16.62;58.54
6150;BME280;3106;42.670;23.318;2022-10-20T09:54:47;95112.19;;;16.63;57.57
6150;BME280;3106;42.670;23.318;2022-10-20T09:57:18;95118.34;;;16.89;57.19
6150;BME280;3106;42.670;23.318;2022-10-20T09:59:47;95126.34;;;17.08;56.75
6150;BME280;3106;42.670;23.318;2022-10-20T10:02:27;95128.16;;;17.00;55.78
6150;BME280;3106;42.670;23.318;2022-10-20T10:05:12;95122.66;;;16.93;55.58
6150;BME280;3106;42.670;23.318;2022-10-20T10:07:39;95113.84;;;16.70;55.72
6150;BME280;3106;42.670;23.318;2022-10-20T10:10:22;95109.28;;;16.49;55.32
6150;BME280;3106;42.670;23.318;2022-10-20T10:12:52;95118.25;;;16.82;55.71
6150;BME280;3106;42.670;23.318;2022-10-20T10:15:25;95092.47;;;16.88;54.70
6150;BME280;3106;42.670;23.318;2022-10-20T10:17:53;95093.72;;;16.94;54.05
6150;BME280;3106;42.670;23.318;2022-10-20T10:20:38;95108.69;;;16.88;53.25
6150;BME280;3106;42.670;23.318;2022-10-20T10:23:13;95104.09;;;16.88;53.27
6150;BME280;3106;42.670;23.318;2022-10-20T10:25:42;95085.81;;;16.78;53.98
6150;BME280;3106;42.670;23.318;2022-10-20T10:28:23;95086.34;;;16.91;54.03
6150;BME280;3106;42.670;23.318;2022-10-20T10:31:08;95062.00;;;17.17;52.31
6150;BME280;3106;42.670;23.318;2022-10-20T10:33:36;95077.69;;;17.34;51.53
6150;BME280;3106;42.670;23.318;2022-10-20T10:36:09;95091.81;;;17.24;51.54
6150;BME280;3106;42.670;23.318;2022-10-20T10:38:37;95095.22;;;17.17;52.60
6150;BME280;3106;42.670;23.318;2022-10-20T10:41:13;95093.91;;;17.34;52.70
6150;BME280;3106;42.670;23.318;2022-10-20T10:43:48;95076.16;;;17.33;51.57
6150;BME280;3106;42.670;23.318;2022-10-20T10:46:19;95104.34;;;17.35;51.10
6150;BME280;3106;42.670;23.318;2022-10-20T10:48:56;95093.19;;;17.37;50.86
6150;BME280;3106;42.670;23.318;2022-10-20T10:51:37;95083.59;;;17.13;51.22
6150;BME280;3106;42.670;23.318;2022-10-20T10:54:21;95076.19;;;17.10;50.51
6150;BME280;3106;42.670;23.318;2022-10-20T10:56:53;95078.88;;;17.07;50.40
6150;BME280;3106;42.670;23.318;2022-10-20T10:59:28;95062.75;;;17.14;50.33
6150;BME280;3106;42.670;23.318;2022-10-20T11:02:38;95057.28;;;17.10;51.43
6150;BME280;3106;42.670;23.318;2022-10-20T11:05:25;95082.97;;;17.56;51.08
6150;BME280;3106;42.670;23.318;2022-10-20T11:08:04;95071.16;;;17.35;51.21
6150;BME280;3106;42.670;23.318;2022-10-20T11:10:39;95054.16;;;17.08;52.30
6150;BME280;3106;42.670;23.318;2022-10-20T11:13:19;95067.56;;;17.31;51.37
6150;BME280;3106;42.670;23.318;2022-10-20T11:16:00;95068.31;;;17.28;50.38
6150;BME280;3106;42.670;23.318;2022-10-20T11:18:43;95044.47;;;17.33;50.18
6150;BME280;3106;42.670;23.318;2022-10-20T11:21:25;95065.50;;;17.47;49.72
6150;BME280;3106;42.670;23.318;2022-10-20T11:24:13;95036.22;;;17.52;49.71
6150;BME280;3106;42.670;23.318;2022-10-20T11:26:45;95056.13;;;17.74;49.58
6150;BME280;3106;42.670;23.318;2022-10-20T11:29:19;95049.00;;;17.95;48.46
6150;BME280;3106;42.670;23.318;2022-10-20T11:31:54;95009.81;;;17.82;48.52
6150;BME280;3106;42.670;23.318;2022-10-20T11:34:32;95045.00;;;18.25;47.92
6150;BME280;3106;42.670;23.318;2022-10-20T11:37:05;95041.38;;;18.08;47.36
6150;BME280;3106;42.670;23.318;2022-10-20T11:39:38;95051.47;;;18.14;47.39
6150;BME280;3106;42.670;23.318;2022-10-20T11:42:17;95022.75;;;17.99;46.71
6150;BME280;3106;42.670;23.318;2022-10-20T11:44:47;95016.06;;;18.29;45.67
6150;BME280;3106;42.670;23.318;2022-10-20T11:47:18;95022.31;;;18.40;45.72
6150;BME280;3106;42.670;23.318;2022-10-20T11:49:48;95009.63;;;18.48;45.76
6150;BME280;3106;42.670;23.318;2022-10-20T11:52:57;95015.47;;;18.57;45.05
6150;BME280;3106;42.670;23.318;2022-10-20T11:55:40;95037.44;;;18.45;44.26
6150;BME280;3106;42.670;23.318;2022-10-20T11:58:21;95017.66;;;18.37;44.74
6150;BME280;3106;42.670;23.318;2022-10-20T12:00:59;94992.84;;;18.28;44.26
6150;BME280;3106;42.670;23.318;2022-10-20T12:04:03;95012.28;;;18.41;44.48
6150;BME280;3106;42.670;23.318;2022-10-20T12:06:54;95029.00;;;18.57;43.71
6150;BME280;3106;42.670;23.318;2022-10-20T12:09:50;95023.53;;;18.46;43.96
6150;BME280;3106;42.670;23.318;2022-10-20T12:12:26;95028.16;;;17.99;44.26
6150;BME280;3106;42.670;23.318;2022-10-20T12:14:58;95015.00;;;17.98;44.46
6150;BME280;3106;42.670;23.318;2022-10-20T12:17:29;95026.97;;;18.40;43.83
6150;BME280;3106;42.670;23.318;2022-10-20T12:29:52;95019.97;;;18.35;43.17
6150;BME280;3106;42.670;23.318;2022-10-20T12:35:28;95013.19;;;18.62;42.92
6150;BME280;3106;42.670;23.318;2022-10-20T12:37:57;95012.78;;;18.60;43.40
6150;BME280;3106;42.670;23.318;2022-10-20T12:40:29;95012.75;;;18.57;42.81
6150;BME280;3106;42.670;23.318;2022-10-20T12:42:56;95012.44;;;18.65;42.18
6150;BME280;3106;42.670;23.318;2022-10-20T12:45:34;95007.28;;;18.46;41.91
6150;BME280;3106;42.670;23.318;2022-10-20T12:48:02;95010.69;;;18.33;42.43
6150;BME280;3106;42.670;23.318;2022-10-20T12:50:33;95004.50;;;18.36;41.96
6150;BME280;3106;42.670;23.318;2022-10-20T12:53:11;95021.19;;;18.41;41.13
6150;BME280;3106;42.670;23.318;2022-10-20T12:55:39;95006.91;;;18.44;41.81
6150;BME280;3106;42.670;23.318;2022-10-20T12:58:11;95016.09;;;18.36;42.81
6150;BME280;3106;42.670;23.318;2022-10-20T13:01:16;95022.44;;;18.54;42.86
6150;BME280;3106;42.670;23.318;2022-10-20T13:03:45;95026.28;;;18.53;42.91
6150;BME280;3106;42.670;23.318;2022-10-20T13:09:21;95032.31;;;18.90;41.44
6150;BME280;3106;42.670;23.318;2022-10-20T13:12:02;95018.38;;;18.88;41.52
6150;BME280;3106;42.670;23.318;2022-10-20T13:14:55;95021.31;;;18.62;41.26
6150;BME280;3106;42.670;23.318;2022-10-20T13:17:34;95019.34;;;18.56;41.59
6150;BME280;3106;42.670;23.318;2022-10-20T13:20:14;95016.97;;;18.47;41.43
6150;BME280;3106;42.670;23.318;2022-10-20T13:22:45;95009.81;;;18.25;41.20
6150;BME280;3106;42.670;23.318;2022-10-20T13:28:06;95020.09;;;18.49;40.54
6150;BME280;3106;42.670;23.318;2022-10-20T13:30:34;95015.91;;;18.62;40.47
6150;BME280;3106;42.670;23.318;2022-10-20T13:33:07;95016.63;;;18.56;41.16
6150;BME280;3106;42.670;23.318;2022-10-20T13:35:46;95022.13;;;18.66;40.94
6150;BME280;3106;42.670;23.318;2022-10-20T13:38:19;94999.97;;;18.54;40.05
6150;BME280;3106;42.670;23.318;2022-10-20T13:40:54;95016.66;;;18.59;40.39
6150;BME280;3106;42.670;23.318;2022-10-20T13:43:29;95009.97;;;18.43;41.27
6150;BME280;3106;42.670;23.318;2022-10-20T13:46:08;94985.00;;;18.17;41.77
6150;BME280;3106;42.670;23.318;2022-10-20T13:48:51;94995.59;;;18.32;41.71
6150;BME280;3106;42.670;23.318;2022-10-20T13:51:24;95015.47;;;18.53;41.18
6150;BME280;3106;42.670;23.318;2022-10-20T13:53:55;95008.84;;;18.47;41.24
6150;BME280;3106;42.670;23.318;2022-10-20T13:56:29;95014.66;;;18.49;41.12
6150;BME280;3106;42.670;23.318;2022-10-20T13:58:59;95016.63;;;18.52;41.35
6150;BME280;3106;42.670;23.318;2022-10-20T14:01:28;95015.34;;;18.36;41.03
6150;BME280;3106;42.670;23.318;2022-10-20T14:03:57;95023.88;;;18.38;41.32
6150;BME280;3106;42.670;23.318;2022-10-20T14:06:35;95019.19;;;18.35;41.54
6150;BME280;3106;42.670;23.318;2022-10-20T14:09:14;95019.59;;;18.37;41.70
6150;BME280;3106;42.670;23.318;2022-10-20T14:11:42;95025.72;;;18.30;41.44
6150;BME280;3106;42.670;23.318;2022-10-20T14:14:12;95004.72;;;18.17;41.69
6150;BME280;3106;42.670;23.318;2022-10-20T14:16:49;95015.88;;;18.09;41.62
6150;BME280;3106;42.670;23.318;2022-10-20T14:19:19;95014.13;;;17.87;42.62
6150;BME280;3106;42.670;23.318;2022-10-20T14:21:49;95020.94;;;17.70;43.00
6150;BME280;3106;42.670;23.318;2022-10-20T14:24:25;95025.53;;;17.66;42.38
6150;BME280;3106;42.670;23.318;2022-10-20T15:03:10;95028.22;;;16.45;49.36
6150;BME280;3106;42.670;23.318;2022-10-20T15:05:41;94995.69;;;16.12;50.02
6150;BME280;3106;42.670;23.318;2022-10-20T15:08:27;95023.25;;;16.25;50.65
6150;BME280;3106;42.670;23.318;2022-10-20T15:10:54;95030.94;;;16.23;50.90
6150;BME280;3106;42.670;23.318;2022-10-20T15:13:30;95035.13;;;16.20;51.47
6150;BME280;3106;42.670;23.318;2022-10-20T15:16:00;95024.53;;;16.08;52.09
6150;BME280;3106;42.670;23.318;2022-10-20T15:18:40;95018.03;;;15.87;52.52
6150;BME280;3106;42.670;23.318;2022-10-20T15:21:14;95040.13;;;15.96;53.03
6150;BME280;3106;42.670;23.318;2022-10-20T15:23:44;95027.03;;;15.72;53.60
6150;BME280;3106;42.670;23.318;2022-10-20T15:26:21;95040.84;;;15.70;54.04
6150;BME280;3106;42.670;23.318;2022-10-20T15:28:50;95030.47;;;15.50;54.81
6150;BME280;3106;42.670;23.318;2022-10-20T15:31:19;95045.88;;;15.49;55.67
6150;BME280;3106;42.670;23.318;2022-10-20T15:33:48;95045.00;;;15.45;55.44
6150;BME280;3106;42.670;23.318;2022-10-20T15:36:16;95042.56;;;15.37;55.88
6150;BME280;3106;42.670;23.318;2022-10-20T15:38:47;95027.50;;;15.17;56.21
6150;BME280;3106;42.670;23.318;2022-10-20T15:41:18;95042.09;;;15.16;57.06
6150;BME280;3106;42.670;23.318;2022-10-20T15:43:45;95034.94;;;15.05;56.69
6150;BME280;3106;42.670;23.318;2022-10-20T15:46:13;95029.63;;;14.89;57.19
6150;BME280;3106;42.670;23.318;2022-10-20T15:48:41;95050.63;;;14.99;57.69
6150;BME280;3106;42.670;23.318;2022-10-20T15:51:14;95053.94;;;14.93;57.18
6150;BME280;3106;42.670;23.318;2022-10-20T15:53:42;95058.75;;;14.84;57.78
6150;BME280;3106;42.670;23.318;2022-10-20T15:56:10;95044.47;;;14.64;57.62
6150;BME280;3106;42.670;23.318;2022-10-20T15:58:37;95065.47;;;14.74;56.62
6150;BME280;3106;42.670;23.318;2022-10-20T16:01:28;95069.28;;;14.73;56.61
6150;BME280;3106;42.670;23.318;2022-10-20T16:04:01;95073.00;;;14.69;57.46
6150;BME280;3106;42.670;23.318;2022-10-20T16:06:34;95050.78;;;14.37;57.45
6150;BME280;3106;42.670;23.318;2022-10-20T16:09:02;95085.22;;;14.47;57.67
6150;BME280;3106;42.670;23.318;2022-10-20T16:11:29;95039.53;;;14.16;58.23
6150;BME280;3106;42.670;23.318;2022-10-20T16:13:56;95050.53;;;14.11;58.67
6150;BME280;3106;42.670;23.318;2022-10-20T16:16:23;95092.00;;;14.26;59.68
6150;BME280;3106;42.670;23.318;2022-10-20T16:18:49;95090.34;;;14.21;60.71
6150;BME280;3106;42.670;23.318;2022-10-20T16:21:16;95079.22;;;14.07;60.63
6150;BME280;3106;42.670;23.318;2022-10-20T16:23:44;95080.53;;;13.98;61.48
6150;BME280;3106;42.670;23.318;2022-10-20T16:26:12;95082.72;;;13.92;62.03
6150;BME280;3106;42.670;23.318;2022-10-20T16:28:40;95113.66;;;14.02;62.49
6150;BME280;3106;42.670;23.318;2022-10-20T16:31:09;95081.91;;;13.76;61.95
6150;BME280;3106;42.670;23.318;2022-10-20T16:33:36;95079.91;;;13.73;62.51
6150;BME280;3106;42.670;23.318;2022-10-20T16:36:05;95103.69;;;13.87;62.44
6150;BME280;3106;42.670;23.318;2022-10-20T16:38:33;95084.09;;;13.71;62.44
6150;BME280;3106;42.670;23.318;2022-10-20T16:41:04;95105.41;;;13.79;62.67
6150;BME280;3106;42.670;23.318;2022-10-20T16:43:35;95110.69;;;13.76;63.19
6150;BME280;3106;42.670;23.318;2022-10-20T16:46:03;95094.88;;;13.59;62.80
6150;BME280;3106;42.670;23.318;2022-10-20T16:48:31;95092.81;;;13.53;63.27
6150;BME280;3106;42.670;23.318;2022-10-20T16:50:58;95129.50;;;13.76;63.39
6150;BME280;3106;42.670;23.318;2022-10-20T16:53:24;95114.03;;;13.57;63.88
6150;BME280;3106;42.670;23.318;2022-10-20T16:55:52;95128.09;;;13.66;63.99
6150;BME280;3106;42.670;23.318;2022-10-20T16:58:22;95119.31;;;13.54;64.33
6150;BME280;3106;42.670;23.318;2022-10-20T17:00:59;95119.22;;;13.51;64.33
6150;BME280;3106;42.670;23.318;2022-10-20T17:03:29;95130.84;;;13.55;64.88
6150;BME280;3106;42.670;23.318;2022-10-20T17:05:57;95137.56;;;13.49;64.84
6150;BME280;3106;42.670;23.318;2022-10-20T17:08:41;95100.84;;;13.25;65.03
6150;BME280;3106;42.670;23.318;2022-10-20T17:11:10;95131.56;;;13.40;65.76
6150;BME280;3106;42.670;23.318;2022-10-20T17:13:39;95144.66;;;13.41;66.19
6150;BME280;3106;42.670;23.318;2022-10-20T17:16:08;95142.88;;;13.45;66.48
6150;BME280;3106;42.670;23.318;2022-10-20T17:18:36;95135.38;;;13.39;66.82
6150;BME280;3106;42.670;23.318;2022-10-20T17:21:04;95146.22;;;13.42;67.33
6150;BME280;3106;42.670;23.318;2022-10-20T17:23:32;95130.31;;;13.22;67.64
6150;BME280;3106;42.670;23.318;2022-10-20T17:25:59;95135.88;;;13.29;69.02
6150;BME280;3106;42.670;23.318;2022-10-20T17:28:27;95145.59;;;13.33;69.58
6150;BME280;3106;42.670;23.318;2022-10-20T17:30:56;95149.97;;;13.26;69.92
6150;BME280;3106;42.670;23.318;2022-10-20T17:33:51;95146.31;;;13.18;69.68
6150;BME280;3106;42.670;23.318;2022-10-20T17:36:32;95164.84;;;13.23;70.24
6150;BME280;3106;42.670;23.318;2022-10-20T17:39:03;95130.81;;;13.00;70.59
6150;BME280;3106;42.670;23.318;2022-10-20T17:54:30;95137.41;;;12.78;73.21
6150;BME280;3106;42.670;23.318;2022-10-20T17:56:57;95133.06;;;12.74;73.53
6150;BME280;3106;42.670;23.318;2022-10-20T17:59:26;95158.75;;;12.87;74.04
6150;BME280;3106;42.670;23.318;2022-10-20T18:01:53;95137.22;;;12.71;74.55
6150;BME280;3106;42.670;23.318;2022-10-20T18:04:21;95137.09;;;12.68;74.65
6150;BME280;3106;42.670;23.318;2022-10-20T18:06:51;95171.16;;;12.91;74.45
6150;BME280;3106;42.670;23.318;2022-10-20T18:09:17;95139.78;;;12.68;75.12
6150;BME280;3106;42.670;23.318;2022-10-20T18:11:49;95120.00;;;12.48;75.31
6150;BME280;3106;42.670;23.318;2022-10-20T18:14:19;95158.66;;;12.71;75.76
6150;BME280;3106;42.670;23.318;2022-10-20T18:16:47;95144.16;;;12.60;76.04
6150;BME280;3106;42.670;23.318;2022-10-20T18:19:15;95124.03;;;12.42;76.31
6150;BME280;3106;42.670;23.318;2022-10-20T18:21:54;95167.50;;;12.60;76.50
6150;BME280;3106;42.670;23.318;2022-10-20T19:55:49;95205.19;;;11.63;82.17
